sensor_id;sensor_type;location;lat;lon;timestamp;temperature;humidity
20288;DHT22;10303;51.960;8.372;2022-09-03T00:00:05;20.80;48.90
20288;DHT22;10303;51.960;8.372;2022-09-03T00:02:42;20.80;49.30
20288;DHT22;10303;51.960;8.372;2022-09-03T00:08:26;20.80;49.20
20288;DHT22;10303;51.960;8.372;2022-09-03T00:11:18;20.70;49.40
20288;DHT22;10303;51.960;8.372;2022-09-03T00:16:39;20.70;49.00
20288;DHT22;10303;51.960;8.372;2022-09-03T00:19:17;20.70;49.40
20288;DHT22;10303;51.960;8.372;2022-09-03T06:05:32;16.90;58.60
20288;DHT22;10303;51.960;8.372;2022-09-03T06:46:10;17.80;59.50
20288;DHT22;10303;51.960;8.372;2022-09-03T06:57:54;18.20;59.50
20288;DHT22;10303;51.960;8.372;2022-09-03T07:00:22;18.40;59.60
20288;DHT22;10303;51.960;8.372;2022-09-03T07:02:55;18.40;59.40
20288;DHT22;10303;51.960;8.372;2022-09-03T07:05:23;18.50;60.50
20288;DHT22;10303;51.960;8.372;2022-09-03T07:19:10;19.10;59.60
20288;DHT22;10303;51.960;8.372;2022-09-03T07:21:40;19.20;59.50
20288;DHT22;10303;51.960;8.372;2022-09-03T07:24:07;19.30;59.50
20288;DHT22;10303;51.960;8.372;2022-09-03T07:26:39;19.40;59.60
20288;DHT22;10303;51.960;8.372;2022-09-03T07:29:26;19.50;59.50
20288;DHT22;10303;51.960;8.372;2022-09-03T07:32:14;19.70;59.70
20288;DHT22;10303;51.960;8.372;2022-09-03T07:34:47;19.80;59.40
20288;DHT22;10303;51.960;8.372;2022-09-03T07:37:14;19.90;59.20
20288;DHT22;10303;51.960;8.372;2022-09-03T07:39:43;20.10;59.10
20288;DHT22;10303;51.960;8.372;2022-09-03T07:42:11;20.20;59.00
20288;DHT22;10303;51.960;8.372;2022-09-03T07:44:38;20.30;58.90
20288;DHT22;10303;51.960;8.372;2022-09-03T07:47:05;20.40;58.70
20288;DHT22;10303;51.960;8.372;2022-09-03T07:49:32;20.50;58.60
20288;DHT22;10303;51.960;8.372;2022-09-03T07:52:02;20.60;58.40
20288;DHT22;10303;51.960;8.372;2022-09-03T07:54:28;20.70;58.40
20288;DHT22;10303;51.960;8.372;2022-09-03T07:56:56;20.80;58.20
20288;DHT22;10303;51.960;8.372;2022-09-03T07:59:24;20.90;58.00
20288;DHT22;10303;51.960;8.372;2022-09-03T08:01:51;21.00;58.00
20288;DHT22;10303;51.960;8.372;2022-09-03T08:04:18;21.10;57.90
20288;DHT22;10303;51.960;8.372;2022-09-03T08:06:46;21.20;57.80
20288;DHT22;10303;51.960;8.372;2022-09-03T08:09:15;21.30;57.70
20288;DHT22;10303;51.960;8.372;2022-09-03T08:11:42;21.40;57.60
20288;DHT22;10303;51.960;8.372;2022-09-03T08:14:11;21.50;57.60
20288;DHT22;10303;51.960;8.372;2022-09-03T08:16:41;21.70;57.50
20288;DHT22;10303;51.960;8.372;2022-09-03T08:19:12;21.80;57.50
20288;DHT22;10303;51.960;8.372;2022-09-03T08:21:38;21.90;57.10
20288;DHT22;10303;51.960;8.372;2022-09-03T08:24:07;22.10;56.90
20288;DHT22;10303;51.960;8.372;2022-09-03T08:26:35;22.20;57.00
20288;DHT22;10303;51.960;8.372;2022-09-03T08:29:13;22.40;57.00
20288;DHT22;10303;51.960;8.372;2022-09-03T08:31:39;22.50;57.00
20288;DHT22;10303;51.960;8.372;2022-09-03T08:34:06;22.70;57.00
20288;DHT22;10303;51.960;8.372;2022-09-03T08:36:34;22.90;56.80
20288;DHT22;10303;51.960;8.372;2022-09-03T08:39:05;23.10;56.90
20288;DHT22;10303;51.960;8.372;2022-09-03T08:42:09;23.30;56.80
20288;DHT22;10303;51.960;8.372;2022-09-03T08:44:58;23.50;56.40
20288;DHT22;10303;51.960;8.372;2022-09-03T08:50:11;24.10;56.10
20288;DHT22;10303;51.960;8.372;2022-09-03T08:55:55;24.70;55.20
20288;DHT22;10303;51.960;8.372;2022-09-03T08:58:33;25.00;54.70
20288;DHT22;10303;51.960;8.372;2022-09-03T09:02:16;25.30;54.60
20288;DHT22;10303;51.960;8.372;2022-09-03T09:06:48;25.80;53.20
20288;DHT22;10303;51.960;8.372;2022-09-03T09:21:36;27.10;52.10
20288;DHT22;10303;51.960;8.372;2022-09-03T09:24:44;27.40;51.30
20288;DHT22;10303;51.960;8.372;2022-09-03T09:27:14;27.60;50.80
20288;DHT22;10303;51.960;8.372;2022-09-03T09:29:48;27.80;50.80
20288;DHT22;10303;51.960;8.372;2022-09-03T09:32:17;28.00;50.90
20288;DHT22;10303;51.960;8.372;2022-09-03T09:34:44;28.20;50.90
20288;DHT22;10303;51.960;8.372;2022-09-03T09:37:13;28.50;50.40
20288;DHT22;10303;51.960;8.372;2022-09-03T09:39:54;28.70;49.60
20288;DHT22;10303;51.960;8.372;2022-09-03T09:42:25;28.90;49.50
20288;DHT22;10303;51.960;8.372;2022-09-03T09:44:54;29.10;49.50
20288;DHT22;10303;51.960;8.372;2022-09-03T09:49:59;29.50;49.70
20288;DHT22;10303;51.960;8.372;2022-09-03T09:52:29;29.80;48.40
20288;DHT22;10303;51.960;8.372;2022-09-03T09:55:14;30.00;48.70
20288;DHT22;10303;51.960;8.372;2022-09-03T09:57:42;30.20;48.30
20288;DHT22;10303;51.960;8.372;2022-09-03T10:00:14;30.50;48.20
20288;DHT22;10303;51.960;8.372;2022-09-03T10:02:49;30.70;47.30
20288;DHT22;10303;51.960;8.372;2022-09-03T10:05:31;30.90;47.60
20288;DHT22;10303;51.960;8.372;2022-09-03T10:08:17;31.00;46.70
20288;DHT22;10303;51.960;8.372;2022-09-03T10:10:48;31.30;46.10
20288;DHT22;10303;51.960;8.372;2022-09-03T10:13:25;31.50;46.40
20288;DHT22;10303;51.960;8.372;2022-09-03T10:16:12;31.70;45.40
20288;DHT22;10303;51.960;8.372;2022-09-03T10:19:11;31.90;45.60
20288;DHT22;10303;51.960;8.372;2022-09-03T10:24:51;32.20;44.20
20288;DHT22;10303;51.960;8.372;2022-09-03T10:27:23;32.40;44.40
20288;DHT22;10303;51.960;8.372;2022-09-03T10:29:51;32.50;43.80
20288;DHT22;10303;51.960;8.372;2022-09-03T10:55:59;33.80;41.70
20288;DHT22;10303;51.960;8.372;2022-09-03T11:01:40;34.00;40.10
20288;DHT22;10303;51.960;8.372;2022-09-03T11:07:47;34.30;41.20
20288;DHT22;10303;51.960;8.372;2022-09-03T11:16:02;34.60;39.80
20288;DHT22;10303;51.960;8.372;2022-09-03T11:18:47;34.80;39.80
20288;DHT22;10303;51.960;8.372;2022-09-03T11:21:21;34.90;38.30
20288;DHT22;10303;51.960;8.372;2022-09-03T11:26:42;35.10;39.40
20288;DHT22;10303;51.960;8.372;2022-09-03T11:32:00;35.20;38.70
20288;DHT22;10303;51.960;8.372;2022-09-03T11:34:50;35.10;38.80
20288;DHT22;10303;51.960;8.372;2022-09-03T11:37:22;35.10;38.60
20288;DHT22;10303;51.960;8.372;2022-09-03T11:40:04;35.00;38.70
20288;DHT22;10303;51.960;8.372;2022-09-03T11:42:44;34.90;38.20
20288;DHT22;10303;51.960;8.372;2022-09-03T11:47:57;34.60;38.10
20288;DHT22;10303;51.960;8.372;2022-09-03T11:50:31;34.60;38.60
20288;DHT22;10303;51.960;8.372;2022-09-03T11:53:20;34.60;38.80
20288;DHT22;10303;51.960;8.372;2022-09-03T11:56:18;34.50;38.80
20288;DHT22;10303;51.960;8.372;2022-09-03T11:58:44;34.40;37.60
20288;DHT22;10303;51.960;8.372;2022-09-03T12:01:16;34.60;38.30
20288;DHT22;10303;51.960;8.372;2022-09-03T12:03:53;34.70;38.40
20288;DHT22;10303;51.960;8.372;2022-09-03T12:06:30;34.80;37.80
20288;DHT22;10303;51.960;8.372;2022-09-03T12:18:39;34.90;38.10
20288;DHT22;10303;51.960;8.372;2022-09-03T12:21:09;34.90;37.90
20288;DHT22;10303;51.960;8.372;2022-09-03T12:23:51;34.80;37.80
20288;DHT22;10303;51.960;8.372;2022-09-03T12:26:21;34.70;37.60
20288;DHT22;10303;51.960;8.372;2022-09-03T12:28:53;34.60;37.30
20288;DHT22;10303;51.960;8.372;2022-09-03T12:31:27;34.60;37.90
20288;DHT22;10303;51.960;8.372;2022-09-03T12:34:01;34.50;37.80
20288;DHT22;10303;51.960;8.372;2022-09-03T12:36:41;34.50;37.90
20288;DHT22;10303;51.960;8.372;2022-09-03T12:47:05;34.40;37.60
20288;DHT22;10303;51.960;8.372;2022-09-03T12:49:36;34.40;37.20
20288;DHT22;10303;51.960;8.372;2022-09-03T12:52:15;34.40;37.60
20288;DHT22;10303;51.960;8.372;2022-09-03T13:00:28;34.40;37.40
20288;DHT22;10303;51.960;8.372;2022-09-03T13:03:18;34.30;37.20
20288;DHT22;10303;51.960;8.372;2022-09-03T13:06:10;34.20;36.90
20288;DHT22;10303;51.960;8.372;2022-09-03T13:08:48;34.10;37.30
20288;DHT22;10303;51.960;8.372;2022-09-03T13:11:25;33.90;37.10
20288;DHT22;10303;51.960;8.372;2022-09-03T13:14:08;33.80;37.10
20288;DHT22;10303;51.960;8.372;2022-09-03T13:22:43;33.40;37.50
20288;DHT22;10303;51.960;8.372;2022-09-03T13:31:45;33.00;37.90
20288;DHT22;10303;51.960;8.372;2022-09-03T13:34:21;32.80;37.90
20288;DHT22;10303;51.960;8.372;2022-09-03T13:37:03;32.70;38.00
20288;DHT22;10303;51.960;8.372;2022-09-03T13:40:05;32.60;38.10
20288;DHT22;10303;51.960;8.372;2022-09-03T13:42:54;32.50;38.20
20288;DHT22;10303;51.960;8.372;2022-09-03T13:45:40;32.40;38.30
20288;DHT22;10303;51.960;8.372;2022-09-03T13:48:23;32.30;38.30
20288;DHT22;10303;51.960;8.372;2022-09-03T13:54:20;32.10;38.40
20288;DHT22;10303;51.960;8.372;2022-09-03T14:08:56;31.70;38.90
20288;DHT22;10303;51.960;8.372;2022-09-03T14:14:55;31.50;39.00
20288;DHT22;10303;51.960;8.372;2022-09-03T14:20:47;31.40;39.70
20288;DHT22;10303;51.960;8.372;2022-09-03T14:26:35;31.30;39.70
20288;DHT22;10303;51.960;8.372;2022-09-03T14:29:24;31.30;39.90
20288;DHT22;10303;51.960;8.372;2022-09-03T14:32:17;31.30;40.10
20288;DHT22;10303;51.960;8.372;2022-09-03T14:41:27;31.30;39.80
20288;DHT22;10303;51.960;8.372;2022-09-03T14:47:35;31.30;39.50
20288;DHT22;10303;51.960;8.372;2022-09-03T15:05:14;31.30;40.10
20288;DHT22;10303;51.960;8.372;2022-09-03T15:11:16;31.20;40.10
20288;DHT22;10303;51.960;8.372;2022-09-03T15:13:51;31.20;40.10
20288;DHT22;10303;51.960;8.372;2022-09-03T15:16:55;31.20;40.10
20288;DHT22;10303;51.960;8.372;2022-09-03T15:28:51;31.20;40.30
20288;DHT22;10303;51.960;8.372;2022-09-03T15:37:43;31.10;40.30
20288;DHT22;10303;51.960;8.372;2022-09-03T15:40:30;31.00;40.20
20288;DHT22;10303;51.960;8.372;2022-09-03T15:43:30;30.90;40.10
20288;DHT22;10303;51.960;8.372;2022-09-03T15:46:04;30.90;40.00
20288;DHT22;10303;51.960;8.372;2022-09-03T15:49:02;30.80;40.00
20288;DHT22;10303;51.960;8.372;2022-09-03T15:51:59;30.80;40.10
20288;DHT22;10303;51.960;8.372;2022-09-03T15:54:40;30.70;40.30
20288;DHT22;10303;51.960;8.372;2022-09-03T15:57:44;30.60;40.40
20288;DHT22;10303;51.960;8.372;2022-09-03T16:00:21;30.50;40.30
20288;DHT22;10303;51.960;8.372;2022-09-03T16:03:13;30.40;40.40
20288;DHT22;10303;51.960;8.372;2022-09-03T16:05:55;30.30;39.80
20288;DHT22;10303;51.960;8.372;2022-09-03T16:08:42;30.30;40.50
20288;DHT22;10303;51.960;8.372;2022-09-03T16:20:05;29.90;40.00
20288;DHT22;10303;51.960;8.372;2022-09-03T16:25:54;29.80;40.30
20288;DHT22;10303;51.960;8.372;2022-09-03T16:28:54;29.70;40.50
20288;DHT22;10303;51.960;8.372;2022-09-03T16:35:19;29.50;40.50
20288;DHT22;10303;51.960;8.372;2022-09-03T16:38:25;29.40;40.70
20288;DHT22;10303;51.960;8.372;2022-09-03T16:41:17;29.40;40.80
20288;DHT22;10303;51.960;8.372;2022-09-03T16:44:40;29.30;40.90
20288;DHT22;10303;51.960;8.372;2022-09-03T16:53:22;29.10;41.10
20288;DHT22;10303;51.960;8.372;2022-09-03T17:07:56;28.80;41.40
20288;DHT22;10303;51.960;8.372;2022-09-03T17:11:46;28.70;41.70
20288;DHT22;10303;51.960;8.372;2022-09-03T17:14:16;28.70;41.70
20288;DHT22;10303;51.960;8.372;2022-09-03T17:26:20;28.50;42.00
20288;DHT22;10303;51.960;8.372;2022-09-03T17:31:55;28.40;42.10
20288;DHT22;10303;51.960;8.372;2022-09-03T17:34:50;28.40;42.10
20288;DHT22;10303;51.960;8.372;2022-09-03T17:46:05;28.10;42.30
20288;DHT22;10303;51.960;8.372;2022-09-03T17:54:11;27.90;42.30
20288;DHT22;10303;51.960;8.372;2022-09-03T18:02:02;27.70;42.60
20288;DHT22;10303;51.960;8.372;2022-09-03T18:04:48;27.70;42.70
20288;DHT22;10303;51.960;8.372;2022-09-03T18:10:31;27.60;42.80
20288;DHT22;10303;51.960;8.372;2022-09-03T18:16:10;27.40;42.90
20288;DHT22;10303;51.960;8.372;2022-09-03T18:18:49;27.40;43.10
20288;DHT22;10303;51.960;8.372;2022-09-03T18:21:22;27.30;43.10
20288;DHT22;10303;51.960;8.372;2022-09-03T18:24:42;27.20;43.10
20288;DHT22;10303;51.960;8.372;2022-09-03T18:27:53;27.20;43.30
20288;DHT22;10303;51.960;8.372;2022-09-03T18:30:41;27.10;43.30
20288;DHT22;10303;51.960;8.372;2022-09-03T18:33:26;27.00;43.20
20288;DHT22;10303;51.960;8.372;2022-09-03T18:36:14;26.90;43.20
20288;DHT22;10303;51.960;8.372;2022-09-03T18:39:13;26.80;43.50
20288;DHT22;10303;51.960;8.372;2022-09-03T18:48:45;26.50;43.90
20288;DHT22;10303;51.960;8.372;2022-09-03T18:52:07;26.50;44.20
20288;DHT22;10303;51.960;8.372;2022-09-03T18:58:46;26.30;44.50
20288;DHT22;10303;51.960;8.372;2022-09-03T19:01:45;26.10;44.70
20288;DHT22;10303;51.960;8.372;2022-09-03T19:08:19;25.90;45.20
20288;DHT22;10303;51.960;8.372;2022-09-03T19:11:32;25.80;45.40
20288;DHT22;10303;51.960;8.372;2022-09-03T19:14:49;25.70;45.70
20288;DHT22;10303;51.960;8.372;2022-09-03T19:21:32;25.40;45.70
20288;DHT22;10303;51.960;8.372;2022-09-03T19:25:09;25.40;46.20
20288;DHT22;10303;51.960;8.372;2022-09-03T19:28:19;25.30;46.20
20288;DHT22;10303;51.960;8.372;2022-09-03T19:31:20;25.10;46.40
20288;DHT22;10303;51.960;8.372;2022-09-03T19:37:24;25.00;46.90
20288;DHT22;10303;51.960;8.372;2022-09-03T19:43:38;24.80;46.80
20288;DHT22;10303;51.960;8.372;2022-09-03T19:46:57;24.70;47.20
20288;DHT22;10303;51.960;8.372;2022-09-03T19:52:57;24.50;47.60
20288;DHT22;10303;51.960;8.372;2022-09-03T19:55:47;24.40;47.60
20288;DHT22;10303;51.960;8.372;2022-09-03T19:58:46;24.40;47.60
20288;DHT22;10303;51.960;8.372;2022-09-03T20:01:38;24.30;47.70
20288;DHT22;10303;51.960;8.372;2022-09-03T20:04:40;24.20;47.60
20288;DHT22;10303;51.960;8.372;2022-09-03T20:07:33;24.10;48.40
20288;DHT22;10303;51.960;8.372;2022-09-03T20:10:19;24.10;48.20
20288;DHT22;10303;51.960;8.372;2022-09-03T20:15:48;23.90;48.50
20288;DHT22;10303;51.960;8.372;2022-09-03T20:19:36;23.90;49.20
20288;DHT22;10303;51.960;8.372;2022-09-03T20:22:40;23.80;49.40
20288;DHT22;10303;51.960;8.372;2022-09-03T20:39:43;23.50;50.10
20288;DHT22;10303;51.960;8.372;2022-09-03T20:52:15;23.10;49.70
20288;DHT22;10303;51.960;8.372;2022-09-03T20:58:15;22.90;50.90
20288;DHT22;10303;51.960;8.372;2022-09-03T21:11:48;22.60;51.20
20288;DHT22;10303;51.960;8.372;2022-09-03T21:15:13;22.50;50.80
20288;DHT22;10303;51.960;8.372;2022-09-03T21:24:30;22.30;51.00
20288;DHT22;10303;51.960;8.372;2022-09-03T21:27:59;22.20;51.30
20288;DHT22;10303;51.960;8.372;2022-09-03T21:30:35;22.10;51.60
20288;DHT22;10303;51.960;8.372;2022-09-03T21:33:15;22.00;51.20
20288;DHT22;10303;51.960;8.372;2022-09-03T21:36:33;22.00;51.40
20288;DHT22;10303;51.960;8.372;2022-09-03T21:39:19;22.00;52.10
20288;DHT22;10303;51.960;8.372;2022-09-03T21:42:42;21.90;51.90
20288;DHT22;10303;51.960;8.372;2022-09-03T21:45:36;21.80;51.90
20288;DHT22;10303;51.960;8.372;2022-09-03T21:48:42;21.70;52.20
20288;DHT22;10303;51.960;8.372;2022-09-03T21:52:23;21.70;52.10
20288;DHT22;10303;51.960;8.372;2022-09-03T22:00:18;21.60;52.30
20288;DHT22;10303;51.960;8.372;2022-09-03T22:03:38;21.50;52.30
20288;DHT22;10303;51.960;8.372;2022-09-03T22:14:48;21.40;52.40
20288;DHT22;10303;51.960;8.372;2022-09-03T22:17:36;21.30;52.80
20288;DHT22;10303;51.960;8.372;2022-09-03T22:27:28;21.10;52.90
20288;DHT22;10303;51.960;8.372;2022-09-03T22:30:38;21.10;53.10
20288;DHT22;10303;51.960;8.372;2022-09-03T22:36:45;21.00;53.20
20288;DHT22;10303;51.960;8.372;2022-09-03T22:39:33;20.90;53.60
20288;DHT22;10303;51.960;8.372;2022-09-03T22:51:03;20.70;53.90
20288;DHT22;10303;51.960;8.372;2022-09-03T22:54:21;20.80;53.40
20288;DHT22;10303;51.960;8.372;2022-09-03T22:58:23;20.70;54.30
20288;DHT22;10303;51.960;8.372;2022-09-03T23:04:16;20.60;54.20
20288;DHT22;10303;51.960;8.372;2022-09-03T23:11:18;20.50;54.60
20288;DHT22;10303;51.960;8.372;2022-09-03T23:14:17;20.60;54.10
20288;DHT22;10303;51.960;8.372;2022-09-03T23:17:20;20.50;54.20
20288;DHT22;10303;51.960;8.372;2022-09-03T23:20:24;20.50;54.50
20288;DHT22;10303;51.960;8.372;2022-09-03T23:37:44;20.30;54.70
20288;DHT22;10303;51.960;8.372;2022-09-03T23:46:41;20.20;55.40
20288;DHT22;10303;51.960;8.372;2022-09-03T23:49:31;20.20;55.30
20288;DHT22;10303;51.960;8.372;2022-09-03T23:55:36;20.10;55.50
20288;DHT22;10303;51.960;8.372;2022-09-03T23:58:26;20.10;55.40
